createdAt,value
2023-02-27T00:00:11.980Z,-3.61
2023-02-27T00:00:42.305Z,-3.61
2023-02-27T00:01:14.958Z,-3.61
2023-02-27T00:01:47.244Z,-3.61
2023-02-27T00:02:10.177Z,-3.61
2023-02-27T00:02:33.578Z,-3.61
2023-02-27T00:03:11.507Z,-3.61
2023-02-27T00:03:55.287Z,-3.72
2023-02-27T00:04:18.158Z,-3.72
2023-02-27T00:04:40.543Z,-3.72
2023-02-27T00:05:15.175Z,-3.72
2023-02-27T00:05:47.065Z,-3.72
2023-02-27T00:06:10.525Z,-3.72
2023-02-27T00:06:32.773Z,-3.72
2023-02-27T00:07:06.870Z,-3.72
2023-02-27T00:07:39.245Z,-3.72
2023-02-27T00:08:10.956Z,-3.77
2023-02-27T00:08:42.448Z,-3.77
2023-02-27T00:09:16.432Z,-3.77
2023-02-27T00:09:47.200Z,-3.61
2023-02-27T00:10:09.765Z,-3.61
2023-02-27T00:10:32.090Z,-3.61
2023-02-27T00:11:06.889Z,-3.61
2023-02-27T00:11:38.962Z,-3.61
2023-02-27T00:12:10.943Z,-3.72
2023-02-27T00:12:42.228Z,-3.72
2023-02-27T00:13:15.375Z,-3.77
2023-02-27T00:13:47.067Z,-3.77
2023-02-27T00:14:10.480Z,-3.77
2023-02-27T00:14:32.734Z,-3.77
2023-02-27T00:15:07.126Z,-3.88
2023-02-27T00:15:38.866Z,-3.88
2023-02-27T00:16:12.924Z,-3.88
2023-02-27T00:16:38.551Z,-3.88
2023-02-27T00:17:15.522Z,-3.88
2023-02-27T00:17:47.697Z,-4.00
2023-02-27T00:18:10.201Z,-4.00
2023-02-27T00:18:33.366Z,-4.00
2023-02-27T00:19:07.582Z,-4.00
2023-02-27T00:19:38.994Z,-4.00
2023-02-27T00:20:11.091Z,-3.77
2023-02-27T00:20:43.807Z,-3.77
2023-02-27T00:21:15.355Z,-3.77
2023-02-27T00:21:47.351Z,-3.77
2023-02-27T00:22:10.109Z,-3.77
2023-02-27T00:22:33.777Z,-3.77
2023-02-27T00:23:07.310Z,-3.77
2023-02-27T00:23:40.661Z,-3.77
2023-02-27T00:24:10.943Z,-3.72
2023-02-27T00:24:43.350Z,-3.72
2023-02-27T00:25:15.042Z,-3.72
2023-02-27T00:25:47.154Z,-3.72
2023-02-27T00:26:09.896Z,-3.72
2023-02-27T00:26:34.707Z,-3.77
2023-02-27T00:27:07.431Z,-3.77
2023-02-27T00:27:39.273Z,-3.77
2023-02-27T00:28:11.093Z,-3.77
2023-02-27T00:28:42.415Z,-3.77
2023-02-27T00:29:15.071Z,-3.77
2023-02-27T00:29:47.107Z,-3.77
2023-02-27T00:30:10.022Z,-3.77
2023-02-27T00:30:32.786Z,-3.77
2023-02-27T00:31:08.566Z,-3.77
2023-02-27T00:31:39.964Z,-3.77
2023-02-27T00:32:12.349Z,-3.77
2023-02-27T00:32:43.144Z,-3.77
2023-02-27T00:33:16.683Z,-3.77
2023-02-27T00:33:48.235Z,-3.77
2023-02-27T00:34:10.940Z,-3.77
2023-02-27T00:34:34.154Z,-3.88
2023-02-27T00:35:07.592Z,-3.88
2023-02-27T00:35:39.434Z,-3.61
2023-02-27T00:36:11.871Z,-3.61
2023-02-27T00:36:42.454Z,-3.61
2023-02-27T00:37:15.013Z,-3.61
2023-02-27T00:37:46.964Z,-3.61
2023-02-27T00:38:09.813Z,-3.61
2023-02-27T00:38:32.361Z,-3.61
2023-02-27T00:39:08.879Z,-3.61
2023-02-27T00:39:39.701Z,-3.61
2023-02-27T00:40:11.273Z,-3.61
2023-02-27T00:40:42.982Z,-3.61
2023-02-27T00:41:15.415Z,-3.61
2023-02-27T00:41:47.712Z,-3.61
2023-02-27T00:42:10.175Z,-3.61
2023-02-27T00:42:32.547Z,-3.61
2023-02-27T00:43:08.922Z,-3.72
2023-02-27T00:43:39.296Z,-3.72
2023-02-27T00:44:11.229Z,-3.72
2023-02-27T00:44:44.867Z,-3.72
2023-02-27T00:45:15.526Z,-3.72
2023-02-27T00:45:47.003Z,-3.72
2023-02-27T00:46:09.768Z,-3.72
2023-02-27T00:46:32.752Z,-3.77
2023-02-27T00:47:10.804Z,-3.77
2023-02-27T00:47:33.183Z,-3.77
2023-02-27T00:48:11.297Z,-3.88
2023-02-27T00:48:42.790Z,-3.88
2023-02-27T00:49:15.178Z,-4.00
2023-02-27T00:49:46.855Z,-4.00
2023-02-27T00:50:10.435Z,-4.00
2023-02-27T00:50:33.158Z,-4.11
2023-02-27T00:51:07.469Z,-4.22
2023-02-27T00:51:39.009Z,-4.22
2023-02-27T00:52:11.504Z,-4.22
2023-02-27T00:52:44.687Z,-4.11
2023-02-27T00:53:14.830Z,-4.11
2023-02-27T00:53:46.867Z,-4.22
2023-02-27T00:54:09.575Z,-4.22
2023-02-27T00:54:33.003Z,-4.22
2023-02-27T00:55:07.068Z,-4.22
2023-02-27T00:55:39.049Z,-4.27
2023-02-27T00:56:10.935Z,-4.27
2023-02-27T00:56:42.192Z,-4.27
2023-02-27T00:57:15.004Z,-4.27
2023-02-27T00:57:46.920Z,-4.27
2023-02-27T00:58:09.916Z,-4.27
2023-02-27T00:58:33.611Z,-4.27
2023-02-27T00:59:07.204Z,-4.27
2023-02-27T00:59:38.958Z,-4.27
2023-02-27T01:00:13.756Z,-4.38
2023-02-27T01:00:42.379Z,-4.38
2023-02-27T01:01:16.490Z,-4.38
2023-02-27T01:01:47.169Z,-4.38
2023-02-27T01:02:09.788Z,-4.38
2023-02-27T01:02:35.525Z,-4.38
2023-02-27T01:03:07.011Z,-4.27
2023-02-27T01:03:42.361Z,-4.27
2023-02-27T01:04:10.865Z,-4.27
2023-02-27T01:04:42.194Z,-4.38
2023-02-27T01:05:15.400Z,-4.38
2023-02-27T01:05:47.266Z,-4.38
2023-02-27T01:06:11.252Z,-4.38
2023-02-27T01:06:34.712Z,-4.38
2023-02-27T01:07:07.124Z,-4.50
2023-02-27T01:07:39.281Z,-4.50
2023-02-27T01:08:10.954Z,-4.61
2023-02-27T01:08:42.310Z,-4.61
2023-02-27T01:09:14.985Z,-4.61
2023-02-27T01:09:46.893Z,-4.72
2023-02-27T01:10:10.233Z,-4.72
2023-02-27T01:10:32.613Z,-4.72
2023-02-27T01:11:06.959Z,-4.72
2023-02-27T01:11:39.504Z,-4.72
2023-02-27T01:12:10.966Z,-4.72
2023-02-27T01:12:42.544Z,-4.50
2023-02-27T01:13:15.068Z,-4.50
2023-02-27T01:13:46.978Z,-4.50
2023-02-27T01:14:09.945Z,-4.38
2023-02-27T01:14:32.176Z,-4.38
2023-02-27T01:15:07.231Z,-4.38
2023-02-27T01:15:39.071Z,-4.38
2023-02-27T01:16:11.038Z,-4.27
2023-02-27T01:16:42.473Z,-4.27
2023-02-27T01:17:16.390Z,-4.22
2023-02-27T01:17:47.084Z,-4.22
2023-02-27T01:18:10.218Z,-4.11
2023-02-27T01:18:32.569Z,-4.11
2023-02-27T01:19:07.073Z,-4.11
2023-02-27T01:19:40.504Z,-4.11
2023-02-27T01:20:11.551Z,-4.11
2023-02-27T01:20:43.672Z,-4.11
2023-02-27T01:21:14.906Z,-4.11
2023-02-27T01:21:46.846Z,-4.00
2023-02-27T01:22:10.077Z,-4.00
2023-02-27T01:22:32.837Z,-4.00
2023-02-27T01:23:09.470Z,-4.00
2023-02-27T01:23:39.333Z,-4.00
2023-02-27T01:24:11.011Z,-3.77
2023-02-27T01:24:42.477Z,-3.88
2023-02-27T01:25:14.876Z,-3.88
2023-02-27T01:25:46.986Z,-3.77
2023-02-27T01:26:09.720Z,-3.77
2023-02-27T01:26:33.581Z,-3.77
2023-02-27T01:27:06.852Z,-3.77
2023-02-27T01:27:38.936Z,-3.77
2023-02-27T01:28:10.949Z,-3.77
2023-02-27T01:28:42.331Z,-3.77
2023-02-27T01:29:15.028Z,-3.72
2023-02-27T01:29:47.322Z,-3.72
2023-02-27T01:30:10.362Z,-3.72
2023-02-27T01:30:32.794Z,-3.72
2023-02-27T01:31:06.991Z,-3.72
2023-02-27T01:31:39.014Z,-3.72
2023-02-27T01:32:15.484Z,-3.72
2023-02-27T01:32:42.387Z,-3.72
2023-02-27T01:33:15.196Z,-3.72
2023-02-27T01:33:47.062Z,-3.72
2023-02-27T01:34:10.494Z,-3.72
2023-02-27T01:34:34.317Z,-3.72
2023-02-27T01:35:07.207Z,-3.72
2023-02-27T01:35:39.072Z,-3.72
2023-02-27T01:36:10.979Z,-3.72
2023-02-27T01:36:42.263Z,-3.72
2023-02-27T01:37:14.904Z,-3.88
2023-02-27T01:37:50.435Z,-3.77
2023-02-27T01:38:10.124Z,-3.77
2023-02-27T01:38:32.502Z,-3.77
2023-02-27T01:39:09.423Z,-3.77
2023-02-27T01:39:40.527Z,-3.77
2023-02-27T01:40:11.190Z,-3.77
2023-02-27T01:40:42.511Z,-3.77
2023-02-27T01:41:15.025Z,-3.77
2023-02-27T01:41:47.118Z,-3.77
2023-02-27T01:42:10.650Z,-3.77
2023-02-27T01:42:32.212Z,-3.77
2023-02-27T01:43:07.311Z,-3.77
2023-02-27T01:43:39.792Z,-3.77
2023-02-27T01:44:11.041Z,-3.77
2023-02-27T01:44:42.351Z,-3.77
2023-02-27T01:45:15.021Z,-3.77
2023-02-27T01:45:46.950Z,-3.77
2023-02-27T01:46:11.219Z,-3.77
2023-02-27T01:46:33.399Z,-3.77
2023-02-27T01:47:07.018Z,-3.77
2023-02-27T01:47:40.431Z,-3.77
2023-02-27T01:48:10.849Z,-3.77
2023-02-27T01:48:42.216Z,-3.88
2023-02-27T01:49:14.886Z,-3.88
2023-02-27T01:49:47.427Z,-3.88
2023-02-27T01:50:10.169Z,-3.88
2023-02-27T01:50:32.378Z,-3.88
2023-02-27T01:51:07.031Z,-3.88
2023-02-27T01:51:41.324Z,-3.88
2023-02-27T01:52:11.530Z,-3.88
2023-02-27T01:52:42.326Z,-4.00
2023-02-27T01:53:15.001Z,-4.00
2023-02-27T01:53:47.023Z,-4.00
2023-02-27T01:54:09.845Z,-4.00
2023-02-27T01:54:32.270Z,-4.11
2023-02-27T01:55:07.094Z,-4.11
2023-02-27T01:55:41.232Z,-4.11
2023-02-27T01:56:11.152Z,-4.11
2023-02-27T01:56:42.240Z,-4.11
2023-02-27T01:57:14.944Z,-4.11
2023-02-27T01:57:47.261Z,-4.11
2023-02-27T01:58:09.579Z,-4.11
2023-02-27T01:58:32.123Z,-4.11
2023-02-27T01:59:06.956Z,-4.11
2023-02-27T01:59:39.068Z,-4.11
2023-02-27T02:00:11.052Z,-4.11
2023-02-27T02:00:42.451Z,-4.11
2023-02-27T02:01:14.877Z,-4.11
2023-02-27T02:01:47.179Z,-4.11
2023-02-27T02:02:35.270Z,-4.11
2023-02-27T02:03:08.397Z,-4.22
2023-02-27T02:03:39.159Z,-4.22
2023-02-27T02:04:10.899Z,-4.22
2023-02-27T02:04:42.256Z,-4.22
2023-02-27T02:05:14.938Z,-4.22
2023-02-27T02:05:47.020Z,-4.22
2023-02-27T02:06:09.938Z,-4.22
2023-02-27T02:06:32.045Z,-4.22
2023-02-27T02:07:06.979Z,-4.22
2023-02-27T02:07:39.074Z,-4.22
2023-02-27T02:08:11.050Z,-4.22
2023-02-27T02:08:42.680Z,-4.00
2023-02-27T02:09:15.022Z,-4.00
2023-02-27T02:09:47.470Z,-4.00
2023-02-27T02:10:10.617Z,-4.00
2023-02-27T02:10:33.015Z,-4.00
2023-02-27T02:11:07.211Z,-4.00
2023-02-27T02:11:38.885Z,-4.00
2023-02-27T02:12:10.990Z,-4.00
2023-02-27T02:12:43.140Z,-4.00
2023-02-27T02:13:14.938Z,-4.00
2023-02-27T02:13:46.887Z,-4.00
2023-02-27T02:14:10.380Z,-4.00
2023-02-27T02:14:32.663Z,-4.00
2023-02-27T02:15:07.228Z,-4.00
2023-02-27T02:15:41.403Z,-4.00
2023-02-27T02:16:10.894Z,-4.00
2023-02-27T02:16:43.509Z,-4.00
2023-02-27T02:17:14.902Z,-3.88
2023-02-27T02:17:47.002Z,-3.88
2023-02-27T02:18:13.099Z,-3.88
2023-02-27T02:18:50.902Z,-3.88
2023-02-27T02:19:13.793Z,-3.88
2023-02-27T02:19:36.211Z,-3.88
2023-02-27T02:20:10.989Z,-3.88
2023-02-27T02:20:49.313Z,-3.88
2023-02-27T02:21:14.983Z,-3.88
2023-02-27T02:21:47.137Z,-3.77
2023-02-27T02:22:09.674Z,-3.77
2023-02-27T02:22:32.147Z,-3.77
2023-02-27T02:23:07.512Z,-3.77
2023-02-27T02:23:38.965Z,-3.77
2023-02-27T02:24:10.985Z,-3.77
2023-02-27T02:24:44.355Z,-3.77
2023-02-27T02:25:14.908Z,-3.77
2023-02-27T02:25:47.135Z,-3.77
2023-02-27T02:26:10.086Z,-3.77
2023-02-27T02:26:33.575Z,-3.77
2023-02-27T02:27:06.979Z,-3.77
2023-02-27T02:27:39.012Z,-3.77
2023-02-27T02:28:11.014Z,-3.88
2023-02-27T02:28:42.240Z,-3.88
2023-02-27T02:29:14.978Z,-3.88
2023-02-27T02:29:47.024Z,-3.88
2023-02-27T02:30:10.232Z,-3.88
2023-02-27T02:30:32.478Z,-3.88
2023-02-27T02:31:06.981Z,-3.88
2023-02-27T02:31:39.460Z,-3.88
2023-02-27T02:32:10.952Z,-3.88
2023-02-27T02:32:42.294Z,-3.88
2023-02-27T02:33:14.917Z,-3.88
2023-02-27T02:33:46.906Z,-3.88
2023-02-27T02:34:09.845Z,-3.88
2023-02-27T02:34:32.332Z,-3.88
2023-02-27T02:35:06.952Z,-3.88
2023-02-27T02:35:39.010Z,-4.00
2023-02-27T02:36:11.141Z,-4.00
2023-02-27T02:36:42.257Z,-4.00
2023-02-27T02:37:14.864Z,-4.00
2023-02-27T02:37:46.895Z,-4.11
2023-02-27T02:38:10.043Z,-4.11
2023-02-27T02:38:32.321Z,-4.11
2023-02-27T02:39:08.548Z,-4.11
2023-02-27T02:39:38.872Z,-4.22
2023-02-27T02:40:11.312Z,-4.22
2023-02-27T02:40:42.268Z,-4.22
2023-02-27T02:41:14.923Z,-4.27
2023-02-27T02:41:46.883Z,-4.27
2023-02-27T02:42:09.744Z,-4.27
2023-02-27T02:42:32.028Z,-4.38
2023-02-27T02:43:07.165Z,-4.38
2023-02-27T02:43:39.422Z,-4.38
2023-02-27T02:44:10.999Z,-4.50
2023-02-27T02:44:42.583Z,-4.50
2023-02-27T02:45:14.985Z,-4.50
2023-02-27T02:45:46.941Z,-4.61
2023-02-27T02:46:09.614Z,-4.61
2023-02-27T02:46:31.888Z,-4.61
2023-02-27T02:47:07.133Z,-4.61
2023-02-27T02:47:39.074Z,-4.72
2023-02-27T02:48:11.140Z,-4.72
2023-02-27T02:48:43.461Z,-4.77
2023-02-27T02:49:14.907Z,-4.77
2023-02-27T02:49:47.481Z,-4.77
2023-02-27T02:50:11.252Z,-4.77
2023-02-27T02:50:38.678Z,-4.77
2023-02-27T02:51:10.523Z,-4.77
2023-02-27T02:51:39.036Z,-4.77
2023-02-27T02:52:11.141Z,-4.77
2023-02-27T02:52:42.407Z,-4.88
2023-02-27T02:53:15.037Z,-4.88
2023-02-27T02:53:48.344Z,-4.88
2023-02-27T02:54:11.635Z,-4.88
2023-02-27T02:54:34.015Z,-4.72
2023-02-27T02:55:07.463Z,-4.72
2023-02-27T02:55:39.173Z,-4.72
2023-02-27T02:56:10.901Z,-4.72
2023-02-27T02:56:43.812Z,-4.72
2023-02-27T02:57:14.923Z,-4.72
2023-02-27T02:57:48.695Z,-4.72
2023-02-27T02:58:09.901Z,-4.72
2023-02-27T02:58:32.331Z,-4.72
2023-02-27T02:59:07.061Z,-4.72
2023-02-27T02:59:39.297Z,-4.77
2023-02-27T03:00:16.935Z,-4.77
2023-02-27T03:00:37.411Z,-4.77
2023-02-27T03:01:15.986Z,-4.77
2023-02-27T03:01:50.674Z,-4.77
2023-02-27T03:02:10.283Z,-4.77
2023-02-27T03:02:33.306Z,-4.77
2023-02-27T03:03:22.462Z,-4.77
2023-02-27T03:03:42.675Z,-4.77
2023-02-27T03:04:11.257Z,-4.88
2023-02-27T03:04:42.458Z,-4.88
2023-02-27T03:05:15.038Z,-4.88
2023-02-27T03:05:49.215Z,-4.72
2023-02-27T03:06:09.880Z,-4.72
2023-02-27T03:06:32.016Z,-4.61
2023-02-27T03:07:06.975Z,-4.61
2023-02-27T03:07:39.168Z,-4.61
2023-02-27T03:08:11.289Z,-4.50
2023-02-27T03:08:42.366Z,-4.50
2023-02-27T03:09:14.991Z,-4.50
2023-02-27T03:09:47.311Z,-4.50
2023-02-27T03:10:10.377Z,-4.50
2023-02-27T03:10:32.614Z,-4.38
2023-02-27T03:11:07.134Z,-4.38
2023-02-27T03:11:39.022Z,-4.38
2023-02-27T03:12:11.041Z,-4.38
2023-02-27T03:12:42.304Z,-4.38
2023-02-27T03:13:15.337Z,-4.50
2023-02-27T03:13:47.097Z,-4.50
2023-02-27T03:14:10.083Z,-4.50
2023-02-27T03:14:32.461Z,-4.50
2023-02-27T03:15:07.303Z,-4.50
2023-02-27T03:15:39.197Z,-4.50
2023-02-27T03:16:11.028Z,-4.50
2023-02-27T03:16:42.331Z,-4.61
2023-02-27T03:17:17.557Z,-4.61
2023-02-27T03:17:47.022Z,-4.72
2023-02-27T03:18:10.632Z,-4.72
2023-02-27T03:18:32.964Z,-4.72
2023-02-27T03:19:07.037Z,-4.72
2023-02-27T03:19:39.073Z,-4.72
2023-02-27T03:20:11.072Z,-4.72
2023-02-27T03:20:42.615Z,-4.72
2023-02-27T03:21:15.055Z,-4.72
2023-02-27T03:21:47.380Z,-4.61
2023-02-27T03:22:11.111Z,-4.61
2023-02-27T03:22:33.665Z,-4.61
2023-02-27T03:23:07.108Z,-4.61
2023-02-27T03:23:39.039Z,-4.72
2023-02-27T03:24:16.518Z,-4.72
2023-02-27T03:24:39.208Z,-4.72
2023-02-27T03:25:15.426Z,-4.72
2023-02-27T03:25:47.182Z,-4.72
2023-02-27T03:26:09.762Z,-4.72
2023-02-27T03:26:34.183Z,-4.61
2023-02-27T03:27:07.501Z,-4.61
2023-02-27T03:27:39.929Z,-4.61
2023-02-27T03:28:11.205Z,-4.61
2023-02-27T03:28:43.167Z,-4.72
2023-02-27T03:29:15.069Z,-4.72
2023-02-27T03:29:47.264Z,-4.72
2023-02-27T03:30:10.318Z,-4.72
2023-02-27T03:30:33.658Z,-4.72
2023-02-27T03:31:09.907Z,-4.72
2023-02-27T03:31:39.417Z,-4.77
2023-02-27T03:32:11.430Z,-4.77
2023-02-27T03:32:42.382Z,-4.88
2023-02-27T03:33:15.219Z,-4.88
2023-02-27T03:33:47.141Z,-4.88
2023-02-27T03:34:09.856Z,-4.88
2023-02-27T03:34:32.266Z,-4.88
2023-02-27T03:35:07.293Z,-4.88
2023-02-27T03:35:39.876Z,-4.88
2023-02-27T03:36:12.149Z,-4.88
2023-02-27T03:36:42.576Z,-4.88
2023-02-27T03:37:15.139Z,-4.88
2023-02-27T03:37:47.271Z,-5.00
2023-02-27T03:38:09.977Z,-5.00
2023-02-27T03:38:32.325Z,-5.00
2023-02-27T03:39:07.480Z,-5.00
2023-02-27T03:39:39.249Z,-5.00
2023-02-27T03:40:12.414Z,-5.00
2023-02-27T03:40:44.917Z,-5.00
2023-02-27T03:41:19.422Z,-5.00
2023-02-27T03:41:47.349Z,-5.11
2023-02-27T03:42:09.897Z,-5.11
2023-02-27T03:42:32.359Z,-5.11
2023-02-27T03:43:07.351Z,-5.11
2023-02-27T03:43:40.077Z,-5.11
2023-02-27T03:44:11.262Z,-5.22
2023-02-27T03:44:42.890Z,-5.22
2023-02-27T03:45:15.380Z,-5.22
2023-02-27T03:45:49.327Z,-5.22
2023-02-27T03:46:12.280Z,-5.22
2023-02-27T03:46:34.859Z,-5.22
2023-02-27T03:47:07.296Z,-5.22
2023-02-27T03:47:39.417Z,-5.22
2023-02-27T03:48:12.014Z,-5.22
2023-02-27T03:48:42.832Z,-5.27
2023-02-27T03:49:16.466Z,-5.27
2023-02-27T03:49:47.112Z,-5.22
2023-02-27T03:50:10.089Z,-5.22
2023-02-27T03:50:33.633Z,-5.22
2023-02-27T03:51:09.738Z,-5.22
2023-02-27T03:51:39.721Z,-5.22
2023-02-27T03:52:12.707Z,-5.22
2023-02-27T03:52:42.711Z,-5.22
2023-02-27T03:53:15.202Z,-5.22
2023-02-27T03:53:47.760Z,-5.22
2023-02-27T03:54:10.579Z,-5.11
2023-02-27T03:54:33.629Z,-5.00
2023-02-27T03:55:07.576Z,-5.00
2023-02-27T03:55:40.216Z,-5.11
2023-02-27T03:56:12.419Z,-5.11
2023-02-27T03:56:42.414Z,-5.11
2023-02-27T03:57:15.430Z,-5.11
2023-02-27T03:57:47.072Z,-5.11
2023-02-27T03:58:11.434Z,-5.11
2023-02-27T03:58:32.542Z,-5.11
2023-02-27T03:59:11.078Z,-5.11
2023-02-27T03:59:39.100Z,-5.11
2023-02-27T04:00:11.318Z,-5.11
2023-02-27T04:00:42.839Z,-5.11
2023-02-27T04:01:16.614Z,-5.11
2023-02-27T04:01:53.546Z,-5.11
2023-02-27T04:02:35.890Z,-5.11
2023-02-27T04:03:16.447Z,-5.11
2023-02-27T04:03:39.503Z,-5.11
2023-02-27T04:04:14.316Z,-5.11
2023-02-27T04:04:42.640Z,-5.11
2023-02-27T04:05:15.999Z,-5.11
2023-02-27T04:05:47.481Z,-5.11
2023-02-27T04:06:10.216Z,-5.22
2023-02-27T04:06:33.174Z,-5.22
2023-02-27T04:07:07.155Z,-5.22
2023-02-27T04:07:39.195Z,-5.22
2023-02-27T04:08:11.091Z,-5.22
2023-02-27T04:08:42.524Z,-5.22
2023-02-27T04:09:14.954Z,-5.22
2023-02-27T04:09:47.356Z,-5.22
2023-02-27T04:10:10.102Z,-5.22
2023-02-27T04:10:34.105Z,-5.22
2023-02-27T04:11:08.490Z,-5.22
2023-02-27T04:11:39.028Z,-5.22
2023-02-27T04:12:11.277Z,-5.22
2023-02-27T04:12:46.259Z,-5.22
2023-02-27T04:13:15.413Z,-5.22
2023-02-27T04:13:47.465Z,-5.22
2023-02-27T04:14:09.903Z,-5.22
2023-02-27T04:14:32.980Z,-5.22
2023-02-27T04:15:07.242Z,-5.22
2023-02-27T04:15:39.235Z,-5.22
2023-02-27T04:16:11.531Z,-5.22
2023-02-27T04:16:42.410Z,-5.22
2023-02-27T04:17:18.605Z,-5.27
2023-02-27T04:17:41.306Z,-5.27
2023-02-27T04:18:14.041Z,-5.27
2023-02-27T04:18:51.278Z,-5.22
2023-02-27T04:19:13.955Z,-5.22
2023-02-27T04:19:36.246Z,-5.22
2023-02-27T04:20:11.230Z,-5.22
2023-02-27T04:20:43.441Z,-5.22
2023-02-27T04:21:15.078Z,-5.27
2023-02-27T04:21:46.951Z,-5.27
2023-02-27T04:22:10.641Z,-5.27
2023-02-27T04:22:33.077Z,-5.27
2023-02-27T04:23:07.305Z,-5.22
2023-02-27T04:23:39.501Z,-5.22
2023-02-27T04:24:11.173Z,-5.22
2023-02-27T04:24:42.345Z,-5.22
2023-02-27T04:25:15.464Z,-5.00
2023-02-27T04:25:52.617Z,-5.00
2023-02-27T04:26:10.102Z,-5.00
2023-02-27T04:26:32.462Z,-5.00
2023-02-27T04:27:07.327Z,-4.88
2023-02-27T04:27:39.186Z,-4.88
2023-02-27T04:28:10.928Z,-4.77
2023-02-27T04:28:42.325Z,-4.77
2023-02-27T04:29:15.114Z,-4.77
2023-02-27T04:29:47.214Z,-4.77
2023-02-27T04:30:10.085Z,-4.77
2023-02-27T04:30:32.670Z,-4.77
2023-02-27T04:31:07.482Z,-4.77
2023-02-27T04:31:39.427Z,-4.77
2023-02-27T04:32:11.283Z,-4.77
2023-02-27T04:32:42.461Z,-4.77
2023-02-27T04:33:15.075Z,-4.88
2023-02-27T04:33:47.017Z,-4.88
2023-02-27T04:34:10.000Z,-4.88
2023-02-27T04:34:32.471Z,-4.88
2023-02-27T04:35:07.338Z,-4.88
2023-02-27T04:35:39.066Z,-4.88
2023-02-27T04:36:13.028Z,-4.88
2023-02-27T04:36:42.356Z,-4.88
2023-02-27T04:37:15.086Z,-5.00
2023-02-27T04:37:47.165Z,-5.00
2023-02-27T04:38:10.569Z,-5.00
2023-02-27T04:38:32.709Z,-5.00
2023-02-27T04:39:07.242Z,-5.00
2023-02-27T04:39:39.055Z,-5.11
2023-02-27T04:40:11.195Z,-5.11
2023-02-27T04:40:42.298Z,-5.11
2023-02-27T04:41:15.351Z,-5.11
2023-02-27T04:41:47.058Z,-5.22
2023-02-27T04:42:10.137Z,-5.22
2023-02-27T04:42:32.556Z,-5.22
2023-02-27T04:43:07.017Z,-5.22
2023-02-27T04:43:39.339Z,-5.27
2023-02-27T04:44:11.039Z,-5.27
2023-02-27T04:44:42.801Z,-5.27
2023-02-27T04:45:15.449Z,-5.27
2023-02-27T04:45:50.614Z,-5.22
2023-02-27T04:46:10.089Z,-5.11
2023-02-27T04:46:32.489Z,-5.11
2023-02-27T04:47:07.161Z,-5.00
2023-02-27T04:47:39.246Z,-5.00
2023-02-27T04:48:11.118Z,-4.88
2023-02-27T04:48:42.261Z,-4.88
2023-02-27T04:49:15.620Z,-4.88
2023-02-27T04:49:46.984Z,-4.88
2023-02-27T04:50:10.665Z,-4.77
2023-02-27T04:50:32.834Z,-4.77
2023-02-27T04:51:08.164Z,-4.77
2023-02-27T04:51:39.050Z,-4.77
2023-02-27T04:52:11.166Z,-4.77
2023-02-27T04:52:42.791Z,-4.77
2023-02-27T04:53:15.099Z,-4.77
2023-02-27T04:53:46.993Z,-4.77
2023-02-27T04:54:09.815Z,-4.77
2023-02-27T04:54:31.985Z,-4.77
2023-02-27T04:55:07.751Z,-4.61
2023-02-27T04:55:39.555Z,-4.61
2023-02-27T04:56:11.030Z,-4.61
2023-02-27T04:56:42.873Z,-4.50
2023-02-27T04:57:15.169Z,-4.50
2023-02-27T04:57:50.577Z,-4.50
2023-02-27T04:58:10.597Z,-4.50
2023-02-27T04:58:32.671Z,-4.38
2023-02-27T04:59:07.786Z,-4.38
2023-02-27T04:59:39.042Z,-4.38
2023-02-27T05:00:11.584Z,-4.38
2023-02-27T05:00:43.478Z,-4.38
2023-02-27T05:01:15.379Z,-4.38
2023-02-27T05:01:47.376Z,-4.61
2023-02-27T05:02:16.569Z,-4.72
2023-02-27T05:02:33.675Z,-4.50
2023-02-27T05:03:14.066Z,-4.50
2023-02-27T05:03:39.227Z,-4.72
2023-02-27T05:04:11.393Z,-4.72
2023-02-27T05:04:42.457Z,-4.61
2023-02-27T05:05:16.616Z,-4.77
2023-02-27T05:05:47.031Z,-4.61
2023-02-27T05:06:10.413Z,-4.61
2023-02-27T05:06:32.633Z,-4.61
2023-02-27T05:07:09.219Z,-4.61
2023-02-27T05:07:39.097Z,-4.61
2023-02-27T05:08:11.178Z,-4.61
2023-02-27T05:08:42.317Z,-4.61
2023-02-27T05:09:15.290Z,-4.61
2023-02-27T05:09:47.036Z,-4.77
2023-02-27T05:10:09.876Z,-4.77
2023-02-27T05:10:32.254Z,-4.77
2023-02-27T05:11:09.013Z,-4.88
2023-02-27T05:11:39.474Z,-4.88
2023-02-27T05:12:11.101Z,-4.88
2023-02-27T05:12:42.280Z,-4.88
2023-02-27T05:13:15.231Z,-5.00
2023-02-27T05:13:47.750Z,-5.00
2023-02-27T05:14:11.393Z,-5.00
2023-02-27T05:14:33.707Z,-5.00
2023-02-27T05:15:07.277Z,-5.11
2023-02-27T05:15:39.035Z,-5.11
2023-02-27T05:16:11.104Z,-5.11
2023-02-27T05:16:42.328Z,-5.22
2023-02-27T05:17:15.457Z,-5.22
2023-02-27T05:17:47.134Z,-5.22
2023-02-27T05:18:10.616Z,-5.22
2023-02-27T05:18:32.557Z,-5.22
2023-02-27T05:19:07.023Z,-5.22
2023-02-27T05:19:39.315Z,-5.27
2023-02-27T05:20:11.821Z,-5.27
2023-02-27T05:20:42.831Z,-5.27
2023-02-27T05:21:15.140Z,-5.27
2023-02-27T05:21:47.139Z,-5.38
2023-02-27T05:22:11.142Z,-5.38
2023-02-27T05:22:36.144Z,-5.38
2023-02-27T05:23:07.267Z,-5.38
2023-02-27T05:23:38.972Z,-5.38
2023-02-27T05:24:11.244Z,-5.27
2023-02-27T05:24:42.329Z,-5.50
2023-02-27T05:25:15.095Z,-5.27
2023-02-27T05:25:47.020Z,-5.22
2023-02-27T05:26:11.408Z,-5.22
2023-02-27T05:26:32.531Z,-5.22
2023-02-27T05:27:07.086Z,-5.38
2023-02-27T05:27:39.044Z,-5.22
2023-02-27T05:28:12.180Z,-5.22
2023-02-27T05:28:43.539Z,-5.22
2023-02-27T05:29:15.371Z,-5.27
2023-02-27T05:29:47.028Z,-5.27
2023-02-27T05:30:11.766Z,-5.27
2023-02-27T05:30:32.554Z,-5.27
2023-02-27T05:31:08.603Z,-5.27
2023-02-27T05:31:39.266Z,-5.27
2023-02-27T05:32:12.384Z,-5.27
2023-02-27T05:32:42.445Z,-5.27
2023-02-27T05:33:15.326Z,-5.27
2023-02-27T05:33:47.069Z,-5.22
2023-02-27T05:34:09.590Z,-5.22
2023-02-27T05:34:31.902Z,-5.11
2023-02-27T05:35:07.221Z,-5.00
2023-02-27T05:35:39.109Z,-5.00
2023-02-27T05:36:12.792Z,-4.88
2023-02-27T05:36:42.287Z,-4.77
2023-02-27T05:37:15.451Z,-4.77
2023-02-27T05:37:47.403Z,-4.77
2023-02-27T05:38:12.697Z,-4.72
2023-02-27T05:38:32.752Z,-4.72
2023-02-27T05:39:07.129Z,-4.72
2023-02-27T05:39:39.397Z,-4.72
2023-02-27T05:40:12.962Z,-4.61
2023-02-27T05:40:42.385Z,-4.61
2023-02-27T05:41:15.169Z,-4.61
2023-02-27T05:41:47.123Z,-4.61
2023-02-27T05:42:09.917Z,-4.61
2023-02-27T05:42:32.491Z,-4.61
2023-02-27T05:43:07.080Z,-4.61
2023-02-27T05:43:39.210Z,-4.61
2023-02-27T05:44:11.438Z,-4.61
2023-02-27T05:44:43.782Z,-4.61
2023-02-27T05:45:15.134Z,-4.61
2023-02-27T05:45:47.191Z,-4.61
2023-02-27T05:46:10.647Z,-4.61
2023-02-27T05:46:33.022Z,-4.72
2023-02-27T05:47:07.039Z,-4.72
2023-02-27T05:47:39.302Z,-4.72
2023-02-27T05:48:11.211Z,-4.77
2023-02-27T05:48:42.281Z,-4.77
2023-02-27T05:49:15.157Z,-4.77
2023-02-27T05:49:47.185Z,-4.77
2023-02-27T05:50:11.039Z,-4.77
2023-02-27T05:50:33.363Z,-4.77
2023-02-27T05:51:07.229Z,-4.77
2023-02-27T05:51:39.050Z,-4.88
2023-02-27T05:52:11.172Z,-4.88
2023-02-27T05:52:42.579Z,-4.88
2023-02-27T05:53:15.119Z,-4.88
2023-02-27T05:53:47.129Z,-4.88
2023-02-27T05:54:11.078Z,-4.88
2023-02-27T05:54:33.163Z,-5.00
2023-02-27T05:55:07.275Z,-5.00
2023-02-27T05:55:39.535Z,-5.00
2023-02-27T05:56:11.147Z,-5.00
2023-02-27T05:56:39.596Z,-5.00
2023-02-27T05:57:16.238Z,-5.00
2023-02-27T05:57:47.223Z,-5.11
2023-02-27T05:58:09.985Z,-5.11
2023-02-27T05:58:33.760Z,-5.11
2023-02-27T05:59:07.634Z,-5.11
2023-02-27T05:59:39.359Z,-5.11
2023-02-27T06:00:12.262Z,-5.22
2023-02-27T06:00:42.700Z,-5.22
2023-02-27T06:01:19.577Z,-5.22
2023-02-27T06:01:49.167Z,-5.22
2023-02-27T06:02:17.482Z,-5.22
2023-02-27T06:02:34.962Z,-5.22
2023-02-27T06:03:12.358Z,-5.22
2023-02-27T06:03:41.649Z,-5.22
2023-02-27T06:04:11.327Z,-5.22
2023-02-27T06:04:44.033Z,-5.22
2023-02-27T06:05:16.695Z,-5.22
2023-02-27T06:05:49.944Z,-5.22
2023-02-27T06:06:11.171Z,-5.22
2023-02-27T06:06:33.567Z,-5.11
2023-02-27T06:07:08.575Z,-5.11
2023-02-27T06:07:39.535Z,-5.11
2023-02-27T06:08:12.112Z,-5.11
2023-02-27T06:08:42.413Z,-5.11
2023-02-27T06:09:17.407Z,-5.11
2023-02-27T06:09:49.178Z,-5.11
2023-02-27T06:10:11.924Z,-5.11
2023-02-27T06:10:34.589Z,-5.11
2023-02-27T06:11:07.509Z,-5.11
2023-02-27T06:11:40.226Z,-4.88
2023-02-27T06:12:11.256Z,-4.88
2023-02-27T06:12:42.578Z,-4.77
2023-02-27T06:13:18.826Z,-4.77
2023-02-27T06:13:53.541Z,-4.72
2023-02-27T06:14:10.633Z,-4.72
2023-02-27T06:14:33.259Z,-4.72
2023-02-27T06:15:07.798Z,-4.72
2023-02-27T06:15:39.547Z,-4.61
2023-02-27T06:16:11.352Z,-4.61
2023-02-27T06:16:42.796Z,-4.61
2023-02-27T06:17:22.542Z,-4.61
2023-02-27T06:17:41.629Z,-4.61
2023-02-27T06:18:14.098Z,-4.50
2023-02-27T06:18:51.505Z,-4.50
2023-02-27T06:19:14.001Z,-4.38
2023-02-27T06:19:36.463Z,-4.38
2023-02-27T06:20:11.408Z,-4.38
2023-02-27T06:20:42.629Z,-4.38
2023-02-27T06:21:15.208Z,-4.27
2023-02-27T06:21:47.387Z,-4.27
2023-02-27T06:22:10.987Z,-4.27
2023-02-27T06:22:33.622Z,-4.27
2023-02-27T06:23:07.402Z,-4.27
2023-02-27T06:23:44.768Z,-4.27
2023-02-27T06:24:11.408Z,-4.22
2023-02-27T06:24:42.455Z,-4.22
2023-02-27T06:25:15.300Z,-4.22
2023-02-27T06:25:47.352Z,-4.22
2023-02-27T06:26:10.015Z,-4.22
2023-02-27T06:26:34.020Z,-4.22
2023-02-27T06:27:07.296Z,-4.22